Time;durP1;ratioP1;P1;durP2;ratioP2;P2;SDS_P1;SDS_P2;PMS_P1;PMS_P2;Temp;Humidity;BMP_temperature;BMP_pressure;BME280_temperature;BME280_humidity;BME280_pressure;Samples;Min_cycle;Max_cycle;Signal;HPM_P1;HPM_P2
2022/06/17 00:00:24;;;;;;;2.30;1.60;;;;;;;;;;5051497;28;20218;-47
2022/06/17 00:02:50;;;;;;;1.40;1.10;;;;;;;;;;5052486;28;20416;-47
2022/06/17 00:05:16;;;;;;;1.45;1.10;;;;;;;;;;5050280;28;20017;-47
2022/06/17 00:07:43;;;;;;;1.60;1.30;;;;;;;;;;5045602;28;20034;-49
2022/06/17 00:10:21;;;;;;;1.65;1.17;;;;;;;;;;5035665;28;20434;-47
2022/06/17 00:12:47;;;;;;;2.33;1.30;;;;;;;;;;5036524;28;20030;-47
2022/06/17 00:15:13;;;;;;;1.52;1.20;;;;;;;;;;5050392;28;20052;-46
2022/06/17 00:17:54;;;;;;;1.75;1.17;;;;;;;;;;5051389;28;20104;-46
2022/06/17 00:20:22;;;;;;;2.35;1.25;;;;;;;;;;5050774;28;20029;-46
2022/06/17 00:22:48;;;;;;;2.20;1.10;;;;;;;;;;5052020;28;20021;-46
2022/06/17 00:25:16;;;;;;;2.80;1.30;;;;;;;;;;5033925;28;20044;-47
2022/06/17 00:27:42;;;;;;;2.97;1.30;;;;;;;;;;5035691;28;20517;-49
2022/06/17 00:30:15;;;;;;;3.70;1.33;;;;;;;;;;5050904;28;20108;-47
2022/06/17 00:32:40;;;;;;;2.03;1.35;;;;;;;;;;5051444;28;20033;-48
2022/06/17 00:35:07;;;;;;;2.28;1.23;;;;;;;;;;5046929;28;20083;-47
2022/06/17 00:37:33;;;;;;;2.40;1.20;;;;;;;;;;5041606;28;20147;-48
2022/06/17 00:39:59;;;;;;;1.05;0.90;;;;;;;;;;5051118;28;20510;-49
2022/06/17 00:42:25;;;;;;;3.78;1.25;;;;;;;;;;5039165;28;20091;-49
2022/06/17 00:45:02;;;;;;;1.25;1.08;;;;;;;;;;5031026;28;20049;-46
2022/06/17 00:47:37;;;;;;;1.45;1.15;;;;;;;;;;5047329;28;20033;-46
2022/06/17 00:50:15;;;;;;;1.25;1.00;;;;;;;;;;5050328;28;20028;-50
2022/06/17 00:52:51;;;;;;;1.80;1.13;;;;;;;;;;5034823;28;20037;-47
2022/06/17 00:55:30;;;;;;;1.33;1.20;;;;;;;;;;5043538;28;20163;-50
2022/06/17 00:57:57;;;;;;;2.08;1.30;;;;;;;;;;5041591;28;20025;-46
2022/06/17 01:00:25;;;;;;;2.30;1.00;;;;;;;;;;5036854;28;20029;-47
2022/06/17 01:02:56;;;;;;;2.08;1.38;;;;;;;;;;5032682;28;20017;-47
2022/06/17 01:05:24;;;;;;;1.00;0.90;;;;;;;;;;5049938;28;20059;-47
2022/06/17 01:07:56;;;;;;;2.25;1.23;;;;;;;;;;5036752;28;20037;-48
2022/06/17 01:10:22;;;;;;;1.65;1.13;;;;;;;;;;5056723;28;20025;-47
2022/06/17 01:12:57;;;;;;;1.80;1.30;;;;;;;;;;5060044;28;20033;-48
2022/06/17 01:15:24;;;;;;;1.45;1.35;;;;;;;;;;5054167;28;20213;-47
2022/06/17 01:17:50;;;;;;;1.55;1.20;;;;;;;;;;5055234;28;20078;-47
2022/06/17 01:20:17;;;;;;;2.28;1.58;;;;;;;;;;5045955;28;20053;-47
2022/06/17 01:22:43;;;;;;;2.05;1.30;;;;;;;;;;5048489;28;20103;-49
2022/06/17 01:25:12;;;;;;;2.55;1.27;;;;;;;;;;5033797;28;20152;-49
2022/06/17 01:27:43;;;;;;;3.08;1.40;;;;;;;;;;5034735;28;20374;-48
2022/06/17 01:30:11;;;;;;;2.07;1.57;;;;;;;;;;5048672;28;20075;-48
2022/06/17 01:32:41;;;;;;;2.55;1.00;;;;;;;;;;5052760;28;20140;-46
2022/06/17 01:35:09;;;;;;;1.85;0.93;;;;;;;;;;5049431;28;20025;-50
2022/06/17 01:37:35;;;;;;;1.85;1.50;;;;;;;;;;5048110;28;20021;-50
2022/06/17 01:40:01;;;;;;;2.90;1.20;;;;;;;;;;5054237;28;20031;-50
2022/06/17 01:42:28;;;;;;;1.98;1.10;;;;;;;;;;5053302;28;20035;-50
2022/06/17 01:44:54;;;;;;;2.25;1.50;;;;;;;;;;5054304;28;20132;-48
2022/06/17 01:47:23;;;;;;;1.58;1.00;;;;;;;;;;5053224;28;20036;-48
2022/06/17 01:49:54;;;;;;;1.67;0.93;;;;;;;;;;5053339;28;20371;-48
2022/06/17 01:52:24;;;;;;;2.33;1.13;;;;;;;;;;5047999;28;20112;-47
2022/06/17 01:55:19;;;;;;;1.85;1.10;;;;;;;;;;5052480;28;20083;-47
2022/06/17 01:57:49;;;;;;;1.75;1.05;;;;;;;;;;5049280;28;20037;-47
2022/06/17 02:00:20;;;;;;;2.42;1.40;;;;;;;;;;5052245;28;20037;-48
2022/06/17 02:02:49;;;;;;;3.08;1.48;;;;;;;;;;5039952;28;20103;-47
2022/06/17 02:05:15;;;;;;;1.63;1.20;;;;;;;;;;5040126;28;20025;-46
2022/06/17 02:07:52;;;;;;;1.88;1.13;;;;;;;;;;5034259;28;20034;-46
2022/06/17 02:10:18;;;;;;;1.83;1.33;;;;;;;;;;5043847;28;20386;-47
2022/06/17 02:12:44;;;;;;;2.67;1.30;;;;;;;;;;5050812;28;20025;-46
2022/06/17 02:15:11;;;;;;;1.77;1.40;;;;;;;;;;5050725;28;20542;-47
2022/06/17 02:17:41;;;;;;;1.65;1.27;;;;;;;;;;5033965;28;20356;-46
2022/06/17 02:20:08;;;;;;;1.95;1.30;;;;;;;;;;5048432;28;20032;-47
2022/06/17 02:22:35;;;;;;;2.35;1.25;;;;;;;;;;5052520;28;20100;-46
2022/06/17 02:25:03;;;;;;;1.83;1.52;;;;;;;;;;5053193;28;20474;-46
2022/06/17 02:27:30;;;;;;;2.83;1.10;;;;;;;;;;5045040;28;20596;-46
2022/06/17 02:29:57;;;;;;;1.08;0.90;;;;;;;;;;5052635;28;20029;-46
2022/06/17 02:32:23;;;;;;;2.83;1.50;;;;;;;;;;5052227;28;20028;-47
2022/06/17 02:35:18;;;;;;;7.57;1.30;;;;;;;;;;5051883;28;20429;-48
2022/06/17 02:37:44;;;;;;;2.17;1.20;;;;;;;;;;5034978;28;20501;-47
2022/06/17 02:40:23;;;;;;;1.02;0.93;;;;;;;;;;5038937;28;20060;-51
2022/06/17 02:42:49;;;;;;;3.47;1.92;;;;;;;;;;5042596;28;20036;-47
2022/06/17 02:45:22;;;;;;;1.55;1.00;;;;;;;;;;5048983;28;20045;-47
2022/06/17 02:47:48;;;;;;;2.03;1.20;;;;;;;;;;5053162;28;20055;-47
2022/06/17 02:50:17;;;;;;;1.20;1.10;;;;;;;;;;5052188;28;20025;-48
2022/06/17 02:52:43;;;;;;;2.60;1.38;;;;;;;;;;5053291;28;20096;-49
2022/06/17 02:55:35;;;;;;;3.50;1.77;;;;;;;;;;5049201;28;20032;-49
2022/06/17 02:58:21;;;;;;;2.35;1.23;;;;;;;;;;5041871;28;20037;-47
2022/06/17 03:00:47;;;;;;;3.47;1.73;;;;;;;;;;5046775;28;20044;-47
2022/06/17 03:03:15;;;;;;;2.22;1.30;;;;;;;;;;5040783;28;20025;-48
2022/06/17 03:05:43;;;;;;;1.85;1.17;;;;;;;;;;5053005;28;20534;-47
2022/06/17 03:08:21;;;;;;;2.08;1.23;;;;;;;;;;5052189;28;20060;-48
2022/06/17 03:10:48;;;;;;;2.20;1.35;;;;;;;;;;5055135;28;20024;-47
2022/06/17 03:13:17;;;;;;;3.88;1.23;;;;;;;;;;5051640;28;20024;-48
2022/06/17 03:15:44;;;;;;;7.18;1.88;;;;;;;;;;5052885;28;20104;-49
2022/06/17 03:18:10;;;;;;;2.72;1.25;;;;;;;;;;5052693;28;20033;-48
2022/06/17 03:20:37;;;;;;;1.67;1.15;;;;;;;;;;5045789;28;20033;-48
2022/06/17 03:23:14;;;;;;;1.80;1.20;;;;;;;;;;5042762;28;20021;-48
2022/06/17 03:25:46;;;;;;;3.30;1.35;;;;;;;;;;5037109;28;20021;-47
2022/06/17 03:28:14;;;;;;;2.15;1.20;;;;;;;;;;5051881;28;20021;-52
2022/06/17 03:30:46;;;;;;;3.05;1.45;;;;;;;;;;5052275;28;20090;-48
2022/06/17 03:33:12;;;;;;;3.00;1.33;;;;;;;;;;5051595;28;20036;-49
2022/06/17 03:35:40;;;;;;;1.17;0.95;;;;;;;;;;5039391;28;20032;-48
2022/06/17 03:38:14;;;;;;;1.92;1.15;;;;;;;;;;5047045;28;20036;-48
2022/06/17 03:40:43;;;;;;;1.58;1.02;;;;;;;;;;5034983;28;20394;-50
2022/06/17 03:43:12;;;;;;;1.58;1.15;;;;;;;;;;5042481;28;20066;-48
2022/06/17 03:45:43;;;;;;;2.10;1.40;;;;;;;;;;5051337;28;20045;-47
2022/06/17 03:48:09;;;;;;;1.80;1.25;;;;;;;;;;5051423;28;20065;-47
2022/06/17 03:50:36;;;;;;;2.35;1.50;;;;;;;;;;5051055;28;20068;-50
2022/06/17 03:53:22;;;;;;;1.83;1.23;;;;;;;;;;5050343;28;20032;-47
2022/06/17 03:55:49;;;;;;;1.90;1.10;;;;;;;;;;5041558;28;20032;-47
2022/06/17 03:58:17;;;;;;;2.00;1.40;;;;;;;;;;5050553;28;20040;-50
2022/06/17 04:00:43;;;;;;;2.50;1.58;;;;;;;;;;5051033;28;20024;-50
2022/06/17 04:03:12;;;;;;;2.65;1.40;;;;;;;;;;5051748;28;20033;-47
2022/06/17 04:05:40;;;;;;;2.15;1.13;;;;;;;;;;5051685;28;20099;-47
2022/06/17 04:08:06;;;;;;;2.42;1.27;;;;;;;;;;5051663;28;20057;-47
2022/06/17 04:10:32;;;;;;;1.45;0.93;;;;;;;;;;5040535;28;20853;-48
2022/06/17 04:12:58;;;;;;;1.83;1.10;;;;;;;;;;5043912;28;20032;-46
2022/06/17 04:15:24;;;;;;;1.75;1.02;;;;;;;;;;5051076;28;20090;-47
2022/06/17 04:17:53;;;;;;;3.20;1.20;;;;;;;;;;5051267;28;20036;-48
2022/06/17 04:20:38;;;;;;;3.28;1.30;;;;;;;;;;5050664;28;20359;-48
2022/06/17 04:23:15;;;;;;;5.18;1.30;;;;;;;;;;5051246;28;20454;-47
2022/06/17 04:26:00;;;;;;;5.10;1.70;;;;;;;;;;5051071;28;20021;-47
2022/06/17 04:28:28;;;;;;;2.97;1.40;;;;;;;;;;5046146;28;20041;-47
2022/06/17 04:30:56;;;;;;;2.83;1.30;;;;;;;;;;5031347;28;20052;-47
2022/06/17 04:33:26;;;;;;;1.58;1.00;;;;;;;;;;5044158;28;20029;-47
2022/06/17 04:35:53;;;;;;;2.00;1.30;;;;;;;;;;5040506;28;20493;-47
2022/06/17 04:38:19;;;;;;;1.75;1.10;;;;;;;;;;5050627;28;20021;-47
2022/06/17 04:40:47;;;;;;;1.85;1.42;;;;;;;;;;5051666;28;20049;-47
2022/06/17 04:43:21;;;;;;;1.80;1.27;;;;;;;;;;5051294;28;20025;-47
2022/06/17 04:45:54;;;;;;;2.90;1.33;;;;;;;;;;5054317;28;20532;-47
2022/06/17 04:48:20;;;;;;;1.45;1.00;;;;;;;;;;5044196;28;20075;-49
2022/06/17 04:50:46;;;;;;;2.42;1.10;;;;;;;;;;5051281;28;20100;-47
2022/06/17 04:53:12;;;;;;;2.38;1.30;;;;;;;;;;5055011;28;20508;-46
2022/06/17 04:55:41;;;;;;;2.33;1.30;;;;;;;;;;5052307;28;20121;-47
2022/06/17 04:58:09;;;;;;;1.20;1.10;;;;;;;;;;5035379;28;20022;-46
2022/06/17 05:00:35;;;;;;;2.30;1.25;;;;;;;;;;5044319;28;20044;-48
2022/06/17 05:03:01;;;;;;;2.40;1.40;;;;;;;;;;5045274;28;20026;-51
2022/06/17 05:05:39;;;;;;;1.40;1.02;;;;;;;;;;5043703;28;20029;-47
2022/06/17 05:08:06;;;;;;;1.98;1.48;;;;;;;;;;5060194;28;20489;-47
2022/06/17 05:10:35;;;;;;;2.58;1.75;;;;;;;;;;5054411;28;20037;-50
2022/06/17 05:13:06;;;;;;;1.77;1.30;;;;;;;;;;5055038;28;20032;-47
2022/06/17 05:15:32;;;;;;;2.25;1.27;;;;;;;;;;5054227;28;20105;-47
2022/06/17 05:17:58;;;;;;;1.75;1.10;;;;;;;;;;5058780;28;20025;-47
2022/06/17 05:20:24;;;;;;;1.65;1.15;;;;;;;;;;5055018;28;20032;-47
2022/06/17 05:22:50;;;;;;;1.98;1.42;;;;;;;;;;5041892;28;20021;-52
2022/06/17 05:25:27;;;;;;;1.88;1.33;;;;;;;;;;5035063;28;20048;-50
2022/06/17 05:27:53;;;;;;;4.63;1.90;;;;;;;;;;5034644;28;20029;-47
2022/06/17 05:30:19;;;;;;;1.65;1.30;;;;;;;;;;5033963;28;20025;-50
2022/06/17 05:32:48;;;;;;;2.47;1.20;;;;;;;;;;5033955;28;20508;-46
2022/06/17 05:35:14;;;;;;;3.00;1.40;;;;;;;;;;5034513;28;20060;-46
2022/06/17 05:37:40;;;;;;;3.78;1.73;;;;;;;;;;5046492;28;20036;-53
2022/06/17 05:40:08;;;;;;;3.08;1.20;;;;;;;;;;5046158;28;20417;-52
2022/06/17 05:42:35;;;;;;;4.18;1.40;;;;;;;;;;5050196;28;20021;-52
2022/06/17 05:45:01;;;;;;;3.10;1.75;;;;;;;;;;5043259;28;20052;-53
2022/06/17 05:47:27;;;;;;;2.42;1.63;;;;;;;;;;5042906;28;20412;-54
2022/06/17 05:49:53;;;;;;;2.72;1.67;;;;;;;;;;5053822;28;20033;-53
2022/06/17 05:52:19;;;;;;;6.60;1.73;;;;;;;;;;5054551;28;20024;-54
2022/06/17 05:54:46;;;;;;;4.65;1.60;;;;;;;;;;5053625;28;20516;-54
2022/06/17 05:57:12;;;;;;;4.45;1.60;;;;;;;;;;5053759;28;20021;-51
2022/06/17 05:59:38;;;;;;;3.50;1.73;;;;;;;;;;5053608;28;20262;-53
2022/06/17 06:02:04;;;;;;;3.85;1.70;;;;;;;;;;5048905;28;20021;-56
2022/06/17 06:04:31;;;;;;;2.88;1.30;;;;;;;;;;5033752;28;20033;-55
2022/06/17 06:06:57;;;;;;;4.03;1.65;;;;;;;;;;5034294;28;20481;-49
2022/06/17 06:09:25;;;;;;;2.42;1.60;;;;;;;;;;5036693;28;20476;-52
2022/06/17 06:11:52;;;;;;;2.00;1.58;;;;;;;;;;5055859;28;20397;-56
2022/06/17 06:14:18;;;;;;;7.15;1.58;;;;;;;;;;5054136;28;20096;-54
2022/06/17 06:16:44;;;;;;;2.55;1.52;;;;;;;;;;5052222;28;20036;-54
2022/06/17 06:19:10;;;;;;;3.00;1.10;;;;;;;;;;5050810;28;20028;-54
2022/06/17 06:21:36;;;;;;;2.78;1.55;;;;;;;;;;5064579;28;20450;-55
2022/06/17 06:24:02;;;;;;;2.65;1.30;;;;;;;;;;5056156;28;20031;-55
2022/06/17 06:26:28;;;;;;;4.53;1.63;;;;;;;;;;5056770;28;20031;-50
2022/06/17 06:28:56;;;;;;;2.30;1.40;;;;;;;;;;5065074;28;20029;-49
2022/06/17 06:31:22;;;;;;;2.85;1.30;;;;;;;;;;5061481;28;20100;-47
2022/06/17 06:33:48;;;;;;;2.25;1.13;;;;;;;;;;5062599;28;20096;-54
2022/06/17 06:36:14;;;;;;;2.80;1.52;;;;;;;;;;5051900;28;20091;-51
2022/06/17 06:38:40;;;;;;;3.03;1.38;;;;;;;;;;5052754;28;20083;-49
2022/06/17 06:41:06;;;;;;;3.85;1.33;;;;;;;;;;5054756;28;20382;-57
2022/06/17 06:43:33;;;;;;;4.53;2.25;;;;;;;;;;5057358;28;20029;-57
2022/06/17 06:45:59;;;;;;;4.82;1.75;;;;;;;;;;5057569;28;20047;-53
2022/06/17 06:48:26;;;;;;;3.00;1.30;;;;;;;;;;5067725;28;20039;-56
2022/06/17 06:50:52;;;;;;;4.88;2.28;;;;;;;;;;5059619;28;20474;-56
2022/06/17 06:53:18;;;;;;;3.15;1.23;;;;;;;;;;5052090;28;20080;-50
2022/06/17 06:55:45;;;;;;;1.90;1.33;;;;;;;;;;5065109;28;20023;-50
2022/06/17 06:58:15;;;;;;;2.53;1.20;;;;;;;;;;5061064;28;20016;-54
2022/06/17 07:00:46;;;;;;;3.70;1.35;;;;;;;;;;5048997;28;20033;-56
2022/06/17 07:03:12;;;;;;;3.75;1.40;;;;;;;;;;5058622;28;20024;-52
2022/06/17 07:05:40;;;;;;;2.08;1.50;;;;;;;;;;5052529;28;20025;-55
2022/06/17 07:08:06;;;;;;;3.83;1.10;;;;;;;;;;5051149;28;20020;-53
2022/06/17 07:10:33;;;;;;;4.03;1.92;;;;;;;;;;5045484;28;20053;-54
2022/06/17 07:13:00;;;;;;;5.65;1.58;;;;;;;;;;5050142;28;20021;-54
2022/06/17 07:15:26;;;;;;;4.55;1.75;;;;;;;;;;5052152;28;20021;-56
2022/06/17 07:17:55;;;;;;;5.18;1.60;;;;;;;;;;5052206;28;20029;-55
2022/06/17 07:20:22;;;;;;;4.38;1.30;;;;;;;;;;5042442;28;20033;-48
2022/06/17 07:22:47;;;;;;;2.65;1.30;;;;;;;;;;5046624;28;20092;-55
2022/06/17 07:25:14;;;;;;;3.30;1.30;;;;;;;;;;5048738;28;20096;-53
2022/06/17 07:27:39;;;;;;;4.60;1.60;;;;;;;;;;5053676;28;20079;-53
2022/06/17 07:30:06;;;;;;;3.95;1.80;;;;;;;;;;5051826;28;20033;-48
2022/06/17 07:32:32;;;;;;;3.17;1.70;;;;;;;;;;5051576;28;20033;-56
2022/06/17 07:34:58;;;;;;;1.70;1.27;;;;;;;;;;5048289;28;20087;-52
2022/06/17 07:40:09;;;;;;;4.00;1.98;;;;;;;;;;5046342;28;20103;-55
2022/06/17 07:42:38;;;;;;;4.20;1.90;;;;;;;;;;5057622;28;20032;-56
2022/06/17 07:45:05;;;;;;;3.42;1.60;;;;;;;;;;5051440;28;20102;-59
2022/06/17 07:47:37;;;;;;;3.97;1.65;;;;;;;;;;5053916;28;20036;-59
2022/06/17 07:50:07;;;;;;;4.55;1.88;;;;;;;;;;5050994;28;20029;-59
2022/06/17 07:52:33;;;;;;;4.65;1.60;;;;;;;;;;5052199;28;20033;-60
2022/06/17 07:54:59;;;;;;;4.97;1.95;;;;;;;;;;5064051;28;20012;-60
2022/06/17 07:57:25;;;;;;;7.78;1.70;;;;;;;;;;5056364;28;20025;-60
2022/06/17 07:59:51;;;;;;;5.60;1.98;;;;;;;;;;5055981;28;20021;-59
2022/06/17 08:02:17;;;;;;;2.30;1.40;;;;;;;;;;5037762;28;20108;-60
2022/06/17 08:04:43;;;;;;;3.38;1.60;;;;;;;;;;5065212;28;20100;-59
2022/06/17 08:07:10;;;;;;;3.55;1.63;;;;;;;;;;5063178;28;20087;-59
2022/06/17 08:09:36;;;;;;;3.67;1.73;;;;;;;;;;5053550;28;20415;-54
2022/06/17 08:12:03;;;;;;;2.67;1.40;;;;;;;;;;5041545;28;20017;-57
2022/06/17 08:14:29;;;;;;;4.60;1.75;;;;;;;;;;5050012;28;20394;-53
2022/06/17 08:16:55;;;;;;;2.65;1.65;;;;;;;;;;5047947;28;20028;-58
2022/06/17 08:19:21;;;;;;;7.25;2.17;;;;;;;;;;5054405;28;20032;-57
2022/06/17 08:21:47;;;;;;;6.35;1.58;;;;;;;;;;5055321;28;20103;-60
2022/06/17 08:24:13;;;;;;;3.25;1.58;;;;;;;;;;5048672;28;20029;-53
2022/06/17 08:26:39;;;;;;;4.07;1.80;;;;;;;;;;5049760;28;20031;-56
2022/06/17 08:29:05;;;;;;;5.25;1.85;;;;;;;;;;5052213;28;20029;-55
2022/06/17 08:31:31;;;;;;;2.80;2.05;;;;;;;;;;5040712;28;20025;-55
2022/06/17 08:33:57;;;;;;;3.58;1.52;;;;;;;;;;5046911;28;20417;-53
2022/06/17 08:36:25;;;;;;;3.35;2.00;;;;;;;;;;5050742;28;20017;-52
2022/06/17 08:38:52;;;;;;;4.60;1.70;;;;;;;;;;5052604;28;20025;-54
2022/06/17 08:41:24;;;;;;;3.88;1.85;;;;;;;;;;5048751;28;20456;-54
2022/06/17 08:43:58;;;;;;;9.82;1.80;;;;;;;;;;5057392;28;20466;-53
2022/06/17 08:46:24;;;;;;;3.65;2.10;;;;;;;;;;5051464;28;20475;-52
2022/06/17 08:48:50;;;;;;;5.82;1.60;;;;;;;;;;5054545;28;20029;-55
2022/06/17 08:51:19;;;;;;;7.65;2.40;;;;;;;;;;5055010;28;20025;-53
2022/06/17 08:54:08;;;;;;;6.65;1.77;;;;;;;;;;5038515;28;20029;-50
2022/06/17 08:56:37;;;;;;;7.35;2.08;;;;;;;;;;5038142;28;20530;-54
2022/06/17 08:59:13;;;;;;;3.60;1.70;;;;;;;;;;5047568;28;20037;-51
2022/06/17 09:01:53;;;;;;;2.97;1.77;;;;;;;;;;5045198;28;20028;-54
2022/06/17 09:04:38;;;;;;;2.38;1.42;;;;;;;;;;5039855;28;20032;-49
2022/06/17 09:07:22;;;;;;;4.97;2.03;;;;;;;;;;5046058;28;20527;-52
2022/06/17 09:10:05;;;;;;;2.25;1.38;;;;;;;;;;5051457;28;20044;-53
2022/06/17 09:12:45;;;;;;;2.65;1.15;;;;;;;;;;5051147;28;20064;-51
2022/06/17 09:15:14;;;;;;;2.03;1.52;;;;;;;;;;5044213;28;20453;-52
2022/06/17 09:17:53;;;;;;;1.65;1.20;;;;;;;;;;5045016;28;20029;-50
2022/06/17 09:20:24;;;;;;;2.45;1.10;;;;;;;;;;5060073;28;20025;-50
2022/06/17 09:22:54;;;;;;;2.63;1.65;;;;;;;;;;5039060;28;20095;-49
2022/06/17 09:25:23;;;;;;;3.92;1.70;;;;;;;;;;5059284;28;20479;-52
2022/06/17 09:27:51;;;;;;;4.10;1.75;;;;;;;;;;5048337;28;20040;-53
2022/06/17 09:30:23;;;;;;;4.22;1.23;;;;;;;;;;5042273;28;20112;-51
2022/06/17 09:33:09;;;;;;;5.43;1.88;;;;;;;;;;5044873;28;20029;-57
2022/06/17 09:35:44;;;;;;;2.78;1.70;;;;;;;;;;5050122;28;20025;-52
2022/06/17 09:38:26;;;;;;;3.85;1.25;;;;;;;;;;5049191;28;20025;-57
2022/06/17 09:40:57;;;;;;;3.35;1.20;;;;;;;;;;5050815;28;20074;-54
2022/06/17 09:43:23;;;;;;;3.42;1.20;;;;;;;;;;5037795;28;20034;-53
2022/06/17 09:45:49;;;;;;;3.13;1.38;;;;;;;;;;5038697;28;20068;-54
2022/06/17 09:48:24;;;;;;;5.05;2.00;;;;;;;;;;5043357;28;20025;-55
2022/06/17 09:50:53;;;;;;;2.30;1.25;;;;;;;;;;5042357;28;20021;-55
2022/06/17 09:53:26;;;;;;;3.00;1.23;;;;;;;;;;5047079;28;20085;-51
2022/06/17 09:55:56;;;;;;;4.55;2.33;;;;;;;;;;5052697;28;20147;-49
2022/06/17 09:58:29;;;;;;;4.20;1.50;;;;;;;;;;5043612;28;20013;-52
2022/06/17 10:00:56;;;;;;;7.95;1.40;;;;;;;;;;5053267;28;20433;-52
2022/06/17 10:03:27;;;;;;;2.25;1.30;;;;;;;;;;5058577;28;20439;-50
2022/06/17 10:06:04;;;;;;;5.75;1.50;;;;;;;;;;5034846;28;20029;-51
2022/06/17 10:08:45;;;;;;;1.48;1.25;;;;;;;;;;5038939;28;20029;-51
2022/06/17 10:11:21;;;;;;;4.47;1.25;;;;;;;;;;5052604;28;20068;-52
2022/06/17 10:13:50;;;;;;;3.10;1.20;;;;;;;;;;5050124;28;20469;-47
2022/06/17 10:19:31;;;;;;;5.00;1.10;;;;;;;;;;5033551;28;20045;-51
2022/06/17 10:21:57;;;;;;;4.00;1.30;;;;;;;;;;5053629;28;20021;-47
2022/06/17 10:24:42;;;;;;;3.33;1.80;;;;;;;;;;5071886;28;20454;-52
2022/06/17 10:27:28;;;;;;;13.50;3.22;;;;;;;;;;5073646;28;20055;-52
2022/06/17 10:30:11;;;;;;;10.93;4.35;;;;;;;;;;5073001;28;20033;-50
2022/06/17 10:32:40;;;;;;;3.25;2.17;;;;;;;;;;5055379;28;20068;-51
2022/06/17 10:35:09;;;;;;;7.47;2.60;;;;;;;;;;5053649;28;20462;-51
2022/06/17 10:37:36;;;;;;;9.40;3.92;;;;;;;;;;5052486;28;20040;-52
2022/06/17 10:40:05;;;;;;;7.28;2.67;;;;;;;;;;5053294;28;20445;-51
2022/06/17 10:42:31;;;;;;;7.90;2.97;;;;;;;;;;5054964;28;20078;-49
2022/06/17 10:44:59;;;;;;;10.93;3.30;;;;;;;;;;5068579;28;20049;-50
2022/06/17 10:47:36;;;;;;;8.85;2.65;;;;;;;;;;5053561;28;20035;-48
2022/06/17 10:50:16;;;;;;;6.65;2.72;;;;;;;;;;5055548;28;20106;-54
2022/06/17 10:53:00;;;;;;;7.47;2.90;;;;;;;;;;5052653;28;20025;-47
2022/06/17 10:55:37;;;;;;;10.52;2.67;;;;;;;;;;5053146;28;20060;-48
2022/06/17 10:58:16;;;;;;;7.78;2.90;;;;;;;;;;5049327;28;20041;-49
2022/06/17 11:01:02;;;;;;;7.88;3.00;;;;;;;;;;5043858;28;20025;-48
2022/06/17 11:03:28;;;;;;;6.40;2.35;;;;;;;;;;5045675;28;20025;-50
2022/06/17 11:06:00;;;;;;;5.60;2.80;;;;;;;;;;5058041;28;20032;-49
2022/06/17 11:08:28;;;;;;;7.00;2.83;;;;;;;;;;5050615;28;20512;-47
2022/06/17 11:10:57;;;;;;;8.38;3.03;;;;;;;;;;5065654;28;20033;-48
2022/06/17 11:13:23;;;;;;;3.65;2.30;;;;;;;;;;5068152;28;20025;-47
2022/06/17 11:15:56;;;;;;;7.28;2.40;;;;;;;;;;5051089;28;20033;-49
2022/06/17 11:18:26;;;;;;;6.45;2.50;;;;;;;;;;5058810;28;20381;-52
2022/06/17 11:20:54;;;;;;;4.60;1.95;;;;;;;;;;5059534;28;20032;-50
2022/06/17 11:23:22;;;;;;;4.28;2.15;;;;;;;;;;5061459;28;20097;-51
2022/06/17 11:25:48;;;;;;;4.95;2.80;;;;;;;;;;5052101;28;20191;-48
2022/06/17 11:28:20;;;;;;;4.88;2.35;;;;;;;;;;5061968;28;20029;-50
2022/06/17 11:30:54;;;;;;;8.07;2.50;;;;;;;;;;5058829;28;20470;-49
2022/06/17 11:33:25;;;;;;;3.38;2.33;;;;;;;;;;5042982;28;20033;-51
2022/06/17 11:36:06;;;;;;;6.55;1.80;;;;;;;;;;5043362;28;20032;-50
2022/06/17 11:38:33;;;;;;;10.55;2.22;;;;;;;;;;5049028;28;20071;-50
2022/06/17 11:41:03;;;;;;;6.40;1.90;;;;;;;;;;5049633;28;20040;-49
2022/06/17 11:43:35;;;;;;;3.08;1.88;;;;;;;;;;5052333;28;20026;-51
2022/06/17 11:46:11;;;;;;;2.78;1.70;;;;;;;;;;5049613;28;20072;-51
2022/06/17 11:48:42;;;;;;;3.38;1.83;;;;;;;;;;5036066;28;20484;-49
2022/06/17 11:51:14;;;;;;;4.90;2.10;;;;;;;;;;5049953;28;20029;-50
2022/06/17 11:53:45;;;;;;;9.40;2.33;;;;;;;;;;5049495;28;20418;-49
2022/06/17 11:56:12;;;;;;;4.28;1.88;;;;;;;;;;5051536;28;20021;-47
2022/06/17 11:58:57;;;;;;;3.50;1.80;;;;;;;;;;5050966;28;20028;-51
2022/06/17 12:01:24;;;;;;;3.85;1.67;;;;;;;;;;5050903;28;20094;-50
2022/06/17 12:03:50;;;;;;;4.07;1.67;;;;;;;;;;5051915;28;20027;-48
2022/06/17 12:06:21;;;;;;;5.88;1.80;;;;;;;;;;5052880;28;20043;-51
2022/06/17 12:08:51;;;;;;;2.50;1.70;;;;;;;;;;5043117;28;20052;-50
2022/06/17 12:11:23;;;;;;;4.68;1.70;;;;;;;;;;5044354;28;20108;-49
2022/06/17 12:13:55;;;;;;;4.57;2.90;;;;;;;;;;5057064;28;20028;-47
2022/06/17 12:16:26;;;;;;;4.10;2.20;;;;;;;;;;5048051;28;20112;-52
2022/06/17 12:18:56;;;;;;;5.22;2.80;;;;;;;;;;5051022;28;20028;-47
2022/06/17 12:21:25;;;;;;;5.85;3.00;;;;;;;;;;5050836;28;20040;-51
2022/06/17 12:24:09;;;;;;;12.50;3.22;;;;;;;;;;5050253;28;20152;-47
2022/06/17 12:26:35;;;;;;;3.25;2.58;;;;;;;;;;5050115;28;20029;-48
2022/06/17 12:29:10;;;;;;;4.45;3.40;;;;;;;;;;5051196;28;20021;-48
2022/06/17 12:31:39;;;;;;;5.25;3.10;;;;;;;;;;5049635;28;20044;-53
2022/06/17 12:34:15;;;;;;;6.10;3.47;;;;;;;;;;5051042;28;20421;-54
2022/06/17 12:36:46;;;;;;;12.50;3.97;;;;;;;;;;5049963;28;20037;-48
2022/06/17 12:39:18;;;;;;;5.00;3.22;;;;;;;;;;5050734;28;20473;-52
2022/06/17 12:41:46;;;;;;;7.32;4.10;;;;;;;;;;5049935;28;20438;-50
2022/06/17 12:44:21;;;;;;;6.70;3.63;;;;;;;;;;5051752;28;20141;-51
2022/06/17 12:46:56;;;;;;;5.05;3.20;;;;;;;;;;5050303;28;20037;-46
2022/06/17 12:55:33;;;;;;;4.82;3.03;;;;;;;;;;5044595;28;20398;-51
2022/06/17 12:58:23;;;;;;;7.20;3.28;;;;;;;;;;5050969;28;20059;-47
2022/06/17 13:00:56;;;;;;;5.60;3.03;;;;;;;;;;5049822;28;20029;-53
2022/06/17 13:03:25;;;;;;;5.97;3.25;;;;;;;;;;5051057;28;20343;-49
2022/06/17 13:05:53;;;;;;;6.63;3.47;;;;;;;;;;5047736;28;20123;-49
2022/06/17 13:08:21;;;;;;;5.50;2.90;;;;;;;;;;5054687;28;20100;-51
2022/06/17 13:10:53;;;;;;;4.32;2.78;;;;;;;;;;5042253;28;20430;-47
2022/06/17 13:13:31;;;;;;;6.20;3.20;;;;;;;;;;5050891;28;20033;-50
2022/06/17 13:16:12;;;;;;;3.17;2.42;;;;;;;;;;5056698;28;20025;-51
2022/06/17 13:18:44;;;;;;;5.70;3.17;;;;;;;;;;5055999;28;20393;-48
2022/06/17 13:21:33;;;;;;;4.18;2.65;;;;;;;;;;5042311;28;20025;-52
2022/06/17 13:24:13;;;;;;;3.20;2.30;;;;;;;;;;5041574;28;20124;-51
2022/06/17 13:26:46;;;;;;;4.00;2.70;;;;;;;;;;5048581;28;20021;-52
2022/06/17 13:29:15;;;;;;;2.67;2.03;;;;;;;;;;5054346;28;20053;-52
2022/06/17 13:31:54;;;;;;;3.88;2.50;;;;;;;;;;5053309;28;20394;-52
2022/06/17 13:34:24;;;;;;;2.95;2.35;;;;;;;;;;5054596;28;20112;-50
2022/06/17 13:36:53;;;;;;;3.55;2.63;;;;;;;;;;5053473;28;20481;-51
2022/06/17 13:39:23;;;;;;;3.38;2.30;;;;;;;;;;5045122;28;20036;-51
2022/06/17 13:41:49;;;;;;;4.20;2.63;;;;;;;;;;5048953;28;20029;-52
2022/06/17 13:44:38;;;;;;;3.78;2.55;;;;;;;;;;5054018;28;20108;-55
2022/06/17 13:47:25;;;;;;;3.05;2.40;;;;;;;;;;5034651;28;20471;-52
2022/06/17 13:50:02;;;;;;;2.40;2.20;;;;;;;;;;5052940;28;20032;-51
2022/06/17 13:52:36;;;;;;;3.88;2.25;;;;;;;;;;5053883;28;20086;-52
2022/06/17 13:55:20;;;;;;;4.03;2.30;;;;;;;;;;5051862;28;20074;-51
2022/06/17 13:57:49;;;;;;;2.97;2.60;;;;;;;;;;5058007;28;20070;-50
2022/06/17 14:00:22;;;;;;;3.55;2.17;;;;;;;;;;5063399;28;20373;-53
2022/06/17 14:02:56;;;;;;;5.13;2.20;;;;;;;;;;5047707;28;20086;-53
2022/06/17 14:05:28;;;;;;;2.78;1.90;;;;;;;;;;5067142;28;20050;-57
2022/06/17 14:07:56;;;;;;;3.60;2.10;;;;;;;;;;5051549;28;20671;-50
2022/06/17 14:10:34;;;;;;;2.80;1.88;;;;;;;;;;5054382;28;20173;-49
2022/06/17 14:13:01;;;;;;;4.63;2.25;;;;;;;;;;5061432;28;20045;-53
2022/06/17 14:15:34;;;;;;;2.88;1.80;;;;;;;;;;5054065;28;20347;-53
2022/06/17 14:18:03;;;;;;;3.97;2.20;;;;;;;;;;5033808;28;20042;-51
2022/06/17 14:20:39;;;;;;;6.72;2.63;;;;;;;;;;5049975;28;20028;-50
2022/06/17 14:23:05;;;;;;;2.78;1.92;;;;;;;;;;5057266;28;20068;-51
2022/06/17 14:25:50;;;;;;;4.15;2.05;;;;;;;;;;5059231;28;20036;-49
2022/06/17 14:28:49;;;;;;;6.57;2.63;;;;;;;;;;5038151;28;20037;-52
2022/06/17 14:31:24;;;;;;;2.92;1.98;;;;;;;;;;5028730;28;20053;-51
2022/06/17 14:33:50;;;;;;;6.60;2.00;;;;;;;;;;5059462;28;20473;-54
2022/06/17 14:36:39;;;;;;;4.30;2.22;;;;;;;;;;5052185;28;20025;-55
2022/06/17 14:39:09;;;;;;;3.17;1.63;;;;;;;;;;5056742;28;20032;-51
2022/06/17 14:44:29;;;;;;;3.53;1.92;;;;;;;;;;5063079;28;20266;-52
2022/06/17 14:47:13;;;;;;;5.10;2.22;;;;;;;;;;5055057;28;20036;-53
2022/06/17 14:49:43;;;;;;;3.97;1.80;;;;;;;;;;5058197;28;20060;-51
2022/06/17 14:52:30;;;;;;;2.30;1.45;;;;;;;;;;5051587;28;20363;-53
2022/06/17 14:54:58;;;;;;;1.83;1.45;;;;;;;;;;5045660;28;20199;-53
2022/06/17 14:57:25;;;;;;;3.60;1.65;;;;;;;;;;5059995;28;20028;-53
2022/06/17 15:00:00;;;;;;;6.28;1.92;;;;;;;;;;5051843;28;20478;-54
2022/06/17 15:02:43;;;;;;;8.52;2.63;;;;;;;;;;5060209;28;20029;-53
2022/06/17 15:05:22;;;;;;;2.42;1.63;;;;;;;;;;5063893;28;20040;-52
2022/06/17 15:07:50;;;;;;;2.67;1.58;;;;;;;;;;5047645;28;20029;-53
2022/06/17 15:10:19;;;;;;;2.65;1.80;;;;;;;;;;5054821;28;20040;-52
2022/06/17 15:12:49;;;;;;;3.97;1.73;;;;;;;;;;5052663;28;20359;-53
2022/06/17 15:15:17;;;;;;;2.55;1.60;;;;;;;;;;5055417;28;20381;-50
2022/06/17 15:18:09;;;;;;;7.13;1.95;;;;;;;;;;5060133;28;20032;-53